Lexington, MA

2:21 PM EDT on May 03, 2015 (GMT -0400)
Logan International | | Change Station
CLOSE
Current Station
Airport
Location: Boston,
Elevation: 20 ft
Nearby Weather Stations

Elev 20 ft 42.36 °N, 71.01 °W | Updated 27 minutes ago

Clear
Clear
59 °F
Feels Like 59 °F
N
10
Wind Variable Wind from ENE

Today
High -- | Low -- °F
--% Chance of Precip.
Yesterday
High -- | Low -- °F
Precip. -- in
5:37 AM 7:46 PM
Full, 100% visible
Pressure 30.07 in
Visibility 10.0 miles
Clouds Few 4000 ft
Scattered Clouds 25000 ft
Dew Point 47 °F
Humidity 64%
Rainfall 0.00 in
Snow Depth Not available.
UV 8 out of 12
Pollen 11.00 out of 12
Air Quality Not available.
Flu Activity Widespread
METAR KBOS 031754Z 06009KT 10SM FEW040 SCT250 15/08 A3007 RMK AO2 SLP182 T01500083 10161 20117 58001

More Conditions Fewer Conditions

Pressure 30.07 in
Visibility 10.0 miles
Clouds Few 4000 ft
Scattered Clouds 25000 ft
Dew Point 47 °F
Humidity 64%
Rainfall 0.00 in
Snow Depth Not available.
UV 8 out of 12
Pollen 11.00 out of 12
Air Quality Not available.
Flu Activity Widespread
METAR KBOS 031754Z 06009KT 10SM FEW040 SCT250 15/08 A3007 RMK AO2 SLP182 T01500083 10161 20117 58001

More Conditions Fewer Conditions

Nepal has a long way to go to dig out and rebuild from a devastating earthquake. We have teamed up with several charities and organizations to make contributing to the relief effort as easy as possible.
How you can help: Portlight Strategies | Red Cross

10-Day Weather Forecast

Almanac

Astronomy

May. 03, 2015 Rise Set
Actual Time
Civil Twilight
Nautical Twilight
Astronomical Twilight
Moon
Length of Visible Light
Length of Day
Tomorrow will be .
, % of the Moon is Illuminated

Today's Extremes

State Highs State Lows

Community

WunderPhotos

Upload Photos

1,818,305 photos uploaded!

WunderBlogs® & News

Nearby

Air Quality

  Air Quality AQ Index Pollutant
Not available.

Snow Depth

Station Depth Elevation

Earthquake Activity

City Distance Mag. Time & Date
Minimum magnitude displayed is 2.5.

Coastal Water Temperatures

Place Temperature

Stations

Nearby Weather Stations

Station Location Temp. Windchill Dew Point Humidity Wind Precip. Elev Updated Type